sensor_id;sensor_type;location;lat;lon;timestamp;P1;durP1;ratioP1;P2;durP2;ratioP2
19705;SDS011;10003;52.506;4.700;2023-05-07T00:01:59;5.17;;;3.50;;
19705;SDS011;10003;52.506;4.700;2023-05-07T00:04:28;1.33;;;1.33;;
19705;SDS011;10003;52.506;4.700;2023-05-07T00:07:03;2.23;;;1.53;;
19705;SDS011;10003;52.506;4.700;2023-05-07T00:09:33;0.60;;;0.60;;
19705;SDS011;10003;52.506;4.700;2023-05-07T00:12:01;2.80;;;2.60;;
19705;SDS011;10003;52.506;4.700;2023-05-07T00:14:30;2.93;;;2.73;;
19705;SDS011;10003;52.506;4.700;2023-05-07T00:16:58;2.43;;;2.33;;
19705;SDS011;10003;52.506;4.700;2023-05-07T00:19:27;1.17;;;1.17;;
19705;SDS011;10003;52.506;4.700;2023-05-07T00:21:55;0.40;;;0.40;;
19705;SDS011;10003;52.506;4.700;2023-05-07T00:24:28;1.43;;;1.43;;
19705;SDS011;10003;52.506;4.700;2023-05-07T00:26:57;2.37;;;2.13;;
19705;SDS011;10003;52.506;4.700;2023-05-07T00:29:27;5.67;;;4.60;;
19705;SDS011;10003;52.506;4.700;2023-05-07T00:31:55;6.90;;;4.20;;
19705;SDS011;10003;52.506;4.700;2023-05-07T00:34:24;10.67;;;8.20;;
19705;SDS011;10003;52.506;4.700;2023-05-07T00:36:52;6.20;;;5.20;;
19705;SDS011;10003;52.506;4.700;2023-05-07T00:39:20;2.17;;;2.07;;
19705;SDS011;10003;52.506;4.700;2023-05-07T00:41:51;3.13;;;2.93;;
19705;SDS011;10003;52.506;4.700;2023-05-07T00:44:22;6.70;;;6.13;;
19705;SDS011;10003;52.506;4.700;2023-05-07T00:46:52;7.53;;;6.43;;
19705;SDS011;10003;52.506;4.700;2023-05-07T00:49:21;3.53;;;3.20;;
19705;SDS011;10003;52.506;4.700;2023-05-07T00:51:52;5.93;;;5.40;;
19705;SDS011;10003;52.506;4.700;2023-05-07T00:54:21;9.60;;;4.87;;
19705;SDS011;10003;52.506;4.700;2023-05-07T00:56:49;3.03;;;2.83;;
19705;SDS011;10003;52.506;4.700;2023-05-07T00:59:20;2.20;;;1.73;;
19705;SDS011;10003;52.506;4.700;2023-05-07T01:01:51;0.73;;;0.73;;
19705;SDS011;10003;52.506;4.700;2023-05-07T01:04:19;2.70;;;2.60;;
19705;SDS011;10003;52.506;4.700;2023-05-07T01:06:49;2.23;;;2.13;;
19705;SDS011;10003;52.506;4.700;2023-05-07T01:09:18;3.17;;;2.83;;
19705;SDS011;10003;52.506;4.700;2023-05-07T01:11:49;2.53;;;2.33;;
19705;SDS011;10003;52.506;4.700;2023-05-07T01:14:18;3.80;;;3.23;;
19705;SDS011;10003;52.506;4.700;2023-05-07T01:16:49;2.33;;;2.23;;
19705;SDS011;10003;52.506;4.700;2023-05-07T01:19:18;2.20;;;1.13;;
19705;SDS011;10003;52.506;4.700;2023-05-07T01:21:47;23.97;;;17.00;;
19705;SDS011;10003;52.506;4.700;2023-05-07T01:24:17;22.20;;;14.43;;
19705;SDS011;10003;52.506;4.700;2023-05-07T01:26:46;10.43;;;5.47;;
19705;SDS011;10003;52.506;4.700;2023-05-07T01:29:14;3.07;;;2.87;;
19705;SDS011;10003;52.506;4.700;2023-05-07T01:31:43;15.93;;;10.30;;
19705;SDS011;10003;52.506;4.700;2023-05-07T01:34:12;11.70;;;2.70;;
19705;SDS011;10003;52.506;4.700;2023-05-07T01:36:41;13.13;;;10.10;;
19705;SDS011;10003;52.506;4.700;2023-05-07T01:39:11;23.47;;;16.37;;
19705;SDS011;10003;52.506;4.700;2023-05-07T01:41:41;29.30;;;19.97;;
19705;SDS011;10003;52.506;4.700;2023-05-07T01:44:11;38.70;;;26.30;;
19705;SDS011;10003;52.506;4.700;2023-05-07T01:46:40;47.23;;;30.87;;
19705;SDS011;10003;52.506;4.700;2023-05-07T01:49:09;39.73;;;28.40;;
19705;SDS011;10003;52.506;4.700;2023-05-07T01:51:37;41.13;;;27.17;;
19705;SDS011;10003;52.506;4.700;2023-05-07T01:54:07;29.73;;;17.70;;
19705;SDS011;10003;52.506;4.700;2023-05-07T01:56:36;13.40;;;10.80;;
19705;SDS011;10003;52.506;4.700;2023-05-07T01:59:06;10.73;;;8.93;;
19705;SDS011;10003;52.506;4.700;2023-05-07T02:01:34;46.20;;;28.20;;
19705;SDS011;10003;52.506;4.700;2023-05-07T02:04:03;17.43;;;6.43;;
19705;SDS011;10003;52.506;4.700;2023-05-07T02:06:32;4.10;;;3.87;;
19705;SDS011;10003;52.506;4.700;2023-05-07T02:09:00;6.33;;;5.93;;
19705;SDS011;10003;52.506;4.700;2023-05-07T02:11:29;6.33;;;5.40;;
19705;SDS011;10003;52.506;4.700;2023-05-07T02:13:57;3.40;;;3.20;;
19705;SDS011;10003;52.506;4.700;2023-05-07T02:16:30;5.03;;;4.63;;
19705;SDS011;10003;52.506;4.700;2023-05-07T02:18:59;4.87;;;4.47;;
19705;SDS011;10003;52.506;4.700;2023-05-07T02:21:27;2.00;;;2.00;;
19705;SDS011;10003;52.506;4.700;2023-05-07T02:23:56;2.43;;;2.33;;
19705;SDS011;10003;52.506;4.700;2023-05-07T02:26:25;7.33;;;4.50;;
19705;SDS011;10003;52.506;4.700;2023-05-07T02:28:54;3.23;;;2.37;;
19705;SDS011;10003;52.506;4.700;2023-05-07T02:31:22;7.50;;;6.63;;
19705;SDS011;10003;52.506;4.700;2023-05-07T02:33:52;1.70;;;1.70;;
19705;SDS011;10003;52.506;4.700;2023-05-07T02:36:20;10.07;;;7.93;;
19705;SDS011;10003;52.506;4.700;2023-05-07T02:38:49;13.57;;;8.13;;
19705;SDS011;10003;52.506;4.700;2023-05-07T02:41:18;9.97;;;8.47;;
19705;SDS011;10003;52.506;4.700;2023-05-07T02:43:46;9.97;;;8.97;;
19705;SDS011;10003;52.506;4.700;2023-05-07T02:46:15;8.17;;;6.53;;
19705;SDS011;10003;52.506;4.700;2023-05-07T02:48:43;3.77;;;3.47;;
19705;SDS011;10003;52.506;4.700;2023-05-07T02:51:13;2.37;;;2.17;;
19705;SDS011;10003;52.506;4.700;2023-05-07T02:53:42;1.53;;;1.43;;
19705;SDS011;10003;52.506;4.700;2023-05-07T02:56:10;20.43;;;13.70;;
19705;SDS011;10003;52.506;4.700;2023-05-07T02:58:39;28.10;;;20.43;;
19705;SDS011;10003;52.506;4.700;2023-05-07T03:01:08;20.50;;;12.37;;
19705;SDS011;10003;52.506;4.700;2023-05-07T03:03:37;6.33;;;4.53;;
19705;SDS011;10003;52.506;4.700;2023-05-07T03:06:06;3.73;;;2.50;;
19705;SDS011;10003;52.506;4.700;2023-05-07T03:08:36;18.73;;;12.73;;
19705;SDS011;10003;52.506;4.700;2023-05-07T03:11:04;29.73;;;20.40;;
19705;SDS011;10003;52.506;4.700;2023-05-07T03:13:33;33.17;;;20.90;;
19705;SDS011;10003;52.506;4.700;2023-05-07T03:16:01;31.13;;;21.53;;
19705;SDS011;10003;52.506;4.700;2023-05-07T03:18:30;25.43;;;18.47;;
19705;SDS011;10003;52.506;4.700;2023-05-07T03:20:58;26.13;;;19.83;;
19705;SDS011;10003;52.506;4.700;2023-05-07T03:23:27;16.83;;;12.40;;
19705;SDS011;10003;52.506;4.700;2023-05-07T03:25:57;24.73;;;17.30;;
19705;SDS011;10003;52.506;4.700;2023-05-07T03:28:25;26.73;;;20.97;;
19705;SDS011;10003;52.506;4.700;2023-05-07T03:30:54;18.33;;;11.93;;
19705;SDS011;10003;52.506;4.700;2023-05-07T03:33:22;7.47;;;6.67;;
19705;SDS011;10003;52.506;4.700;2023-05-07T03:35:51;9.23;;;7.47;;
19705;SDS011;10003;52.506;4.700;2023-05-07T03:38:19;8.53;;;6.13;;
19705;SDS011;10003;52.506;4.700;2023-05-07T03:40:48;5.40;;;4.90;;
19705;SDS011;10003;52.506;4.700;2023-05-07T03:43:18;2.73;;;1.80;;
19705;SDS011;10003;52.506;4.700;2023-05-07T03:45:46;11.90;;;8.47;;
19705;SDS011;10003;52.506;4.700;2023-05-07T03:48:15;1.53;;;1.53;;
19705;SDS011;10003;52.506;4.700;2023-05-07T03:50:43;2.13;;;2.00;;
19705;SDS011;10003;52.506;4.700;2023-05-07T03:53:14;0.70;;;0.70;;
19705;SDS011;10003;52.506;4.700;2023-05-07T03:55:43;2.60;;;1.93;;
19705;SDS011;10003;52.506;4.700;2023-05-07T03:58:11;2.63;;;2.40;;
19705;SDS011;10003;52.506;4.700;2023-05-07T04:00:41;5.63;;;4.50;;
19705;SDS011;10003;52.506;4.700;2023-05-07T04:03:09;2.83;;;2.70;;
19705;SDS011;10003;52.506;4.700;2023-05-07T04:05:38;1.73;;;1.60;;
19705;SDS011;10003;52.506;4.700;2023-05-07T04:08:07;4.60;;;3.23;;
19705;SDS011;10003;52.506;4.700;2023-05-07T04:10:35;2.90;;;2.70;;
19705;SDS011;10003;52.506;4.700;2023-05-07T04:13:04;0.80;;;0.80;;
19705;SDS011;10003;52.506;4.700;2023-05-07T04:15:32;1.33;;;1.23;;
19705;SDS011;10003;52.506;4.700;2023-05-07T04:18:02;12.37;;;10.50;;
19705;SDS011;10003;52.506;4.700;2023-05-07T04:20:31;11.67;;;10.47;;
19705;SDS011;10003;52.506;4.700;2023-05-07T04:23:02;13.87;;;10.33;;
19705;SDS011;10003;52.506;4.700;2023-05-07T04:25:31;13.50;;;11.37;;
19705;SDS011;10003;52.506;4.700;2023-05-07T04:28:00;11.63;;;9.87;;
19705;SDS011;10003;52.506;4.700;2023-05-07T04:30:29;12.63;;;8.57;;
19705;SDS011;10003;52.506;4.700;2023-05-07T04:32:57;9.70;;;8.27;;
19705;SDS011;10003;52.506;4.700;2023-05-07T04:35:27;13.10;;;8.90;;
19705;SDS011;10003;52.506;4.700;2023-05-07T04:37:55;11.43;;;9.77;;
19705;SDS011;10003;52.506;4.700;2023-05-07T04:40:24;3.03;;;2.83;;
19705;SDS011;10003;52.506;4.700;2023-05-07T04:42:52;10.93;;;5.53;;
19705;SDS011;10003;52.506;4.700;2023-05-07T04:45:23;13.83;;;7.43;;
19705;SDS011;10003;52.506;4.700;2023-05-07T04:47:52;8.17;;;6.53;;
19705;SDS011;10003;52.506;4.700;2023-05-07T04:50:21;5.13;;;4.67;;
19705;SDS011;10003;52.506;4.700;2023-05-07T04:52:54;5.70;;;5.00;;
19705;SDS011;10003;52.506;4.700;2023-05-07T04:55:23;0.50;;;0.50;;
19705;SDS011;10003;52.506;4.700;2023-05-07T04:57:54;1.43;;;1.43;;
19705;SDS011;10003;52.506;4.700;2023-05-07T05:00:23;0.60;;;0.60;;
19705;SDS011;10003;52.506;4.700;2023-05-07T05:02:52;0.70;;;0.70;;
19705;SDS011;10003;52.506;4.700;2023-05-07T05:05:21;2.77;;;2.43;;
19705;SDS011;10003;52.506;4.700;2023-05-07T05:07:50;1.27;;;1.27;;
19705;SDS011;10003;52.506;4.700;2023-05-07T05:10:21;1.13;;;1.13;;
19705;SDS011;10003;52.506;4.700;2023-05-07T05:12:50;1.53;;;1.23;;
19705;SDS011;10003;52.506;4.700;2023-05-07T05:15:18;1.43;;;1.33;;
19705;SDS011;10003;52.506;4.700;2023-05-07T05:17:47;0.50;;;0.50;;
19705;SDS011;10003;52.506;4.700;2023-05-07T05:20:15;2.07;;;1.97;;
19705;SDS011;10003;52.506;4.700;2023-05-07T05:22:44;2.17;;;2.03;;
19705;SDS011;10003;52.506;4.700;2023-05-07T05:25:12;0.40;;;0.40;;
19705;SDS011;10003;52.506;4.700;2023-05-07T05:27:43;0.60;;;0.60;;
19705;SDS011;10003;52.506;4.700;2023-05-07T05:30:12;4.47;;;2.33;;
19705;SDS011;10003;52.506;4.700;2023-05-07T05:32:42;0.70;;;0.70;;
19705;SDS011;10003;52.506;4.700;2023-05-07T05:35:11;0.83;;;0.83;;
19705;SDS011;10003;52.506;4.700;2023-05-07T05:37:40;0.47;;;0.47;;
19705;SDS011;10003;52.506;4.700;2023-05-07T05:40:09;3.43;;;3.13;;
19705;SDS011;10003;52.506;4.700;2023-05-07T05:42:37;1.37;;;1.13;;
19705;SDS011;10003;52.506;4.700;2023-05-07T05:45:08;1.50;;;1.47;;
19705;SDS011;10003;52.506;4.700;2023-05-07T05:47:37;1.50;;;1.40;;
19705;SDS011;10003;52.506;4.700;2023-05-07T05:50:06;3.13;;;2.87;;
19705;SDS011;10003;52.506;4.700;2023-05-07T05:52:35;4.37;;;3.83;;
19705;SDS011;10003;52.506;4.700;2023-05-07T05:55:04;1.87;;;1.70;;
19705;SDS011;10003;52.506;4.700;2023-05-07T05:57:33;3.47;;;3.13;;
19705;SDS011;10003;52.506;4.700;2023-05-07T06:00:02;11.30;;;6.97;;
19705;SDS011;10003;52.506;4.700;2023-05-07T06:02:32;4.87;;;4.47;;
19705;SDS011;10003;52.506;4.700;2023-05-07T06:05:01;4.33;;;2.63;;
19705;SDS011;10003;52.506;4.700;2023-05-07T06:07:30;6.17;;;5.57;;
19705;SDS011;10003;52.506;4.700;2023-05-07T06:09:58;3.73;;;2.77;;
19705;SDS011;10003;52.506;4.700;2023-05-07T06:12:27;4.60;;;3.70;;
19705;SDS011;10003;52.506;4.700;2023-05-07T06:14:55;4.80;;;3.90;;
19705;SDS011;10003;52.506;4.700;2023-05-07T06:17:24;4.80;;;4.43;;
19705;SDS011;10003;52.506;4.700;2023-05-07T06:19:54;5.13;;;4.27;;
19705;SDS011;10003;52.506;4.700;2023-05-07T06:22:22;8.20;;;6.20;;
19705;SDS011;10003;52.506;4.700;2023-05-07T06:24:51;10.90;;;7.40;;
19705;SDS011;10003;52.506;4.700;2023-05-07T06:27:19;10.60;;;8.07;;
19705;SDS011;10003;52.506;4.700;2023-05-07T06:29:48;9.93;;;8.40;;
19705;SDS011;10003;52.506;4.700;2023-05-07T06:32:17;4.00;;;3.70;;
19705;SDS011;10003;52.506;4.700;2023-05-07T06:34:46;8.03;;;6.93;;
19705;SDS011;10003;52.506;4.700;2023-05-07T06:37:16;8.27;;;7.07;;
19705;SDS011;10003;52.506;4.700;2023-05-07T06:39:44;10.80;;;9.70;;
19705;SDS011;10003;52.506;4.700;2023-05-07T06:42:13;11.00;;;9.37;;
19705;SDS011;10003;52.506;4.700;2023-05-07T06:44:41;10.73;;;8.70;;
19705;SDS011;10003;52.506;4.700;2023-05-07T06:47:10;5.27;;;4.77;;
19705;SDS011;10003;52.506;4.700;2023-05-07T06:49:41;8.07;;;7.27;;
19705;SDS011;10003;52.506;4.700;2023-05-07T06:52:09;6.93;;;6.10;;
19705;SDS011;10003;52.506;4.700;2023-05-07T06:54:39;6.70;;;6.03;;
19705;SDS011;10003;52.506;4.700;2023-05-07T06:57:07;14.43;;;9.53;;
19705;SDS011;10003;52.506;4.700;2023-05-07T06:59:36;9.13;;;8.13;;
19705;SDS011;10003;52.506;4.700;2023-05-07T07:02:04;9.10;;;7.70;;
19705;SDS011;10003;52.506;4.700;2023-05-07T07:04:33;5.03;;;4.53;;
19705;SDS011;10003;52.506;4.700;2023-05-07T07:07:01;13.07;;;11.67;;
19705;SDS011;10003;52.506;4.700;2023-05-07T07:09:30;9.83;;;7.83;;
19705;SDS011;10003;52.506;4.700;2023-05-07T07:12:00;12.27;;;10.93;;
19705;SDS011;10003;52.506;4.700;2023-05-07T07:14:29;10.13;;;7.63;;
19705;SDS011;10003;52.506;4.700;2023-05-07T07:16:57;11.10;;;8.17;;
19705;SDS011;10003;52.506;4.700;2023-05-07T07:19:25;11.37;;;8.67;;
19705;SDS011;10003;52.506;4.700;2023-05-07T07:21:54;5.00;;;4.37;;
19705;SDS011;10003;52.506;4.700;2023-05-07T07:24:22;10.93;;;9.67;;
19705;SDS011;10003;52.506;4.700;2023-05-07T07:26:51;6.63;;;5.97;;
19705;SDS011;10003;52.506;4.700;2023-05-07T07:29:23;10.27;;;8.17;;
19705;SDS011;10003;52.506;4.700;2023-05-07T07:31:53;9.20;;;7.60;;
19705;SDS011;10003;52.506;4.700;2023-05-07T07:34:21;12.87;;;9.80;;
19705;SDS011;10003;52.506;4.700;2023-05-07T07:36:50;10.00;;;7.27;;
19705;SDS011;10003;52.506;4.700;2023-05-07T07:39:18;8.27;;;7.57;;
19705;SDS011;10003;52.506;4.700;2023-05-07T07:41:47;9.33;;;8.43;;
19705;SDS011;10003;52.506;4.700;2023-05-07T07:44:17;10.17;;;7.57;;
19705;SDS011;10003;52.506;4.700;2023-05-07T07:46:47;10.57;;;9.27;;
19705;SDS011;10003;52.506;4.700;2023-05-07T07:49:16;9.17;;;7.30;;
19705;SDS011;10003;52.506;4.700;2023-05-07T07:51:44;10.90;;;9.23;;
19705;SDS011;10003;52.506;4.700;2023-05-07T07:54:16;10.67;;;7.63;;
19705;SDS011;10003;52.506;4.700;2023-05-07T07:56:44;2.40;;;1.70;;
19705;SDS011;10003;52.506;4.700;2023-05-07T07:59:13;11.50;;;8.87;;
19705;SDS011;10003;52.506;4.700;2023-05-07T08:01:46;6.77;;;4.97;;
19705;SDS011;10003;52.506;4.700;2023-05-07T08:04:20;9.63;;;8.53;;
19705;SDS011;10003;52.506;4.700;2023-05-07T08:06:51;11.23;;;9.50;;
19705;SDS011;10003;52.506;4.700;2023-05-07T08:09:20;8.70;;;7.77;;
19705;SDS011;10003;52.506;4.700;2023-05-07T08:11:49;8.67;;;6.57;;
19705;SDS011;10003;52.506;4.700;2023-05-07T08:14:17;7.07;;;6.33;;
19705;SDS011;10003;52.506;4.700;2023-05-07T08:16:49;11.03;;;9.93;;
19705;SDS011;10003;52.506;4.700;2023-05-07T08:19:18;4.57;;;4.17;;
19705;SDS011;10003;52.506;4.700;2023-05-07T08:21:46;10.13;;;7.07;;
19705;SDS011;10003;52.506;4.700;2023-05-07T08:24:15;7.77;;;6.93;;
19705;SDS011;10003;52.506;4.700;2023-05-07T08:26:44;4.77;;;4.03;;
19705;SDS011;10003;52.506;4.700;2023-05-07T08:29:13;7.80;;;5.93;;
19705;SDS011;10003;52.506;4.700;2023-05-07T08:31:41;11.17;;;9.60;;
19705;SDS011;10003;52.506;4.700;2023-05-07T08:34:11;5.80;;;5.23;;
19705;SDS011;10003;52.506;4.700;2023-05-07T08:36:40;4.33;;;3.60;;
19705;SDS011;10003;52.506;4.700;2023-05-07T08:39:09;5.50;;;4.73;;
19705;SDS011;10003;52.506;4.700;2023-05-07T08:41:37;6.17;;;4.90;;
19705;SDS011;10003;52.506;4.700;2023-05-07T08:44:06;4.60;;;3.00;;
19705;SDS011;10003;52.506;4.700;2023-05-07T08:46:39;12.43;;;9.10;;
19705;SDS011;10003;52.506;4.700;2023-05-07T08:49:09;4.10;;;3.73;;
19705;SDS011;10003;52.506;4.700;2023-05-07T08:51:40;10.60;;;9.03;;
19705;SDS011;10003;52.506;4.700;2023-05-07T08:54:10;12.40;;;6.97;;
19705;SDS011;10003;52.506;4.700;2023-05-07T08:56:39;2.90;;;2.60;;
19705;SDS011;10003;52.506;4.700;2023-05-07T08:59:08;8.23;;;7.30;;
19705;SDS011;10003;52.506;4.700;2023-05-07T09:01:36;8.53;;;7.43;;
19705;SDS011;10003;52.506;4.700;2023-05-07T09:04:05;4.27;;;3.87;;
19705;SDS011;10003;52.506;4.700;2023-05-07T09:06:34;11.07;;;6.97;;
19705;SDS011;10003;52.506;4.700;2023-05-07T09:09:05;5.67;;;4.77;;
19705;SDS011;10003;52.506;4.700;2023-05-07T09:11:34;2.60;;;2.40;;
19705;SDS011;10003;52.506;4.700;2023-05-07T09:14:02;8.63;;;7.83;;
19705;SDS011;10003;52.506;4.700;2023-05-07T09:16:32;6.80;;;5.13;;
19705;SDS011;10003;52.506;4.700;2023-05-07T09:19:01;7.30;;;6.00;;
19705;SDS011;10003;52.506;4.700;2023-05-07T09:21:30;7.37;;;5.60;;
19705;SDS011;10003;52.506;4.700;2023-05-07T09:23:58;7.97;;;6.73;;
19705;SDS011;10003;52.506;4.700;2023-05-07T09:26:28;8.53;;;7.63;;
19705;SDS011;10003;52.506;4.700;2023-05-07T09:28:57;8.70;;;6.90;;
19705;SDS011;10003;52.506;4.700;2023-05-07T09:31:26;2.53;;;2.33;;
19705;SDS011;10003;52.506;4.700;2023-05-07T09:33:54;3.27;;;2.97;;
19705;SDS011;10003;52.506;4.700;2023-05-07T09:36:25;6.70;;;5.63;;
19705;SDS011;10003;52.506;4.700;2023-05-07T09:38:55;7.73;;;6.07;;
19705;SDS011;10003;52.506;4.700;2023-05-07T09:41:24;7.80;;;6.83;;
19705;SDS011;10003;52.506;4.700;2023-05-07T09:43:54;6.73;;;5.33;;
19705;SDS011;10003;52.506;4.700;2023-05-07T09:46:24;8.73;;;7.87;;
19705;SDS011;10003;52.506;4.700;2023-05-07T09:48:53;6.77;;;4.53;;
19705;SDS011;10003;52.506;4.700;2023-05-07T09:51:24;6.50;;;5.30;;
19705;SDS011;10003;52.506;4.700;2023-05-07T09:53:54;3.93;;;3.53;;
19705;SDS011;10003;52.506;4.700;2023-05-07T09:56:27;3.37;;;2.80;;
19705;SDS011;10003;52.506;4.700;2023-05-07T09:58:59;2.57;;;2.37;;
19705;SDS011;10003;52.506;4.700;2023-05-07T10:01:29;5.90;;;3.47;;
19705;SDS011;10003;52.506;4.700;2023-05-07T10:03:59;6.23;;;5.63;;
19705;SDS011;10003;52.506;4.700;2023-05-07T10:06:28;9.90;;;8.43;;
19705;SDS011;10003;52.506;4.700;2023-05-07T10:08:57;4.97;;;3.43;;
19705;SDS011;10003;52.506;4.700;2023-05-07T10:11:28;6.70;;;5.03;;
19705;SDS011;10003;52.506;4.700;2023-05-07T10:13:56;6.43;;;3.77;;
19705;SDS011;10003;52.506;4.700;2023-05-07T10:16:30;6.23;;;5.27;;
19705;SDS011;10003;52.506;4.700;2023-05-07T10:19:02;7.60;;;5.60;;
19705;SDS011;10003;52.506;4.700;2023-05-07T10:21:32;2.97;;;2.53;;
19705;SDS011;10003;52.506;4.700;2023-05-07T10:24:04;6.23;;;4.37;;
19705;SDS011;10003;52.506;4.700;2023-05-07T10:26:40;7.50;;;5.63;;
19705;SDS011;10003;52.506;4.700;2023-05-07T10:29:11;4.53;;;3.80;;
19705;SDS011;10003;52.506;4.700;2023-05-07T10:31:47;2.80;;;2.37;;
19705;SDS011;10003;52.506;4.700;2023-05-07T10:34:18;3.50;;;3.10;;
19705;SDS011;10003;52.506;4.700;2023-05-07T10:36:49;1.07;;;1.07;;
19705;SDS011;10003;52.506;4.700;2023-05-07T10:39:19;5.73;;;4.53;;
19705;SDS011;10003;52.506;4.700;2023-05-07T10:41:47;5.20;;;4.70;;
19705;SDS011;10003;52.506;4.700;2023-05-07T10:44:25;6.13;;;5.40;;
19705;SDS011;10003;52.506;4.700;2023-05-07T10:52:29;7.37;;;4.00;;
19705;SDS011;10003;52.506;4.700;2023-05-07T10:57:41;6.60;;;5.20;;
19705;SDS011;10003;52.506;4.700;2023-05-07T11:03:05;3.60;;;2.60;;
19705;SDS011;10003;52.506;4.700;2023-05-07T11:05:35;3.23;;;3.03;;
19705;SDS011;10003;52.506;4.700;2023-05-07T11:08:05;6.57;;;4.60;;
19705;SDS011;10003;52.506;4.700;2023-05-07T11:10:50;7.73;;;7.03;;
19705;SDS011;10003;52.506;4.700;2023-05-07T11:16:16;5.93;;;3.83;;
19705;SDS011;10003;52.506;4.700;2023-05-07T11:18:47;1.07;;;1.03;;
19705;SDS011;10003;52.506;4.700;2023-05-07T11:21:32;2.43;;;2.23;;
19705;SDS011;10003;52.506;4.700;2023-05-07T11:24:02;5.50;;;4.97;;
19705;SDS011;10003;52.506;4.700;2023-05-07T11:26:42;3.63;;;3.07;;
19705;SDS011;10003;52.506;4.700;2023-05-07T11:29:11;9.83;;;7.27;;
19705;SDS011;10003;52.506;4.700;2023-05-07T11:31:40;2.03;;;1.43;;
19705;SDS011;10003;52.506;4.700;2023-05-07T11:34:09;0.90;;;0.80;;
19705;SDS011;10003;52.506;4.700;2023-05-07T11:36:41;1.37;;;1.37;;
19705;SDS011;10003;52.506;4.700;2023-05-07T11:39:24;1.40;;;1.30;;
19705;SDS011;10003;52.506;4.700;2023-05-07T11:41:53;8.73;;;5.60;;
19705;SDS011;10003;52.506;4.700;2023-05-07T11:44:21;8.53;;;6.07;;
19705;SDS011;10003;52.506;4.700;2023-05-07T11:46:50;4.33;;;3.73;;
19705;SDS011;10003;52.506;4.700;2023-05-07T11:49:19;1.73;;;1.67;;
19705;SDS011;10003;52.506;4.700;2023-05-07T11:51:47;0.87;;;0.87;;
19705;SDS011;10003;52.506;4.700;2023-05-07T11:54:16;6.03;;;5.40;;
19705;SDS011;10003;52.506;4.700;2023-05-07T11:56:46;7.70;;;6.13;;
19705;SDS011;10003;52.506;4.700;2023-05-07T11:59:17;6.47;;;5.50;;
19705;SDS011;10003;52.506;4.700;2023-05-07T12:01:46;4.23;;;3.77;;
19705;SDS011;10003;52.506;4.700;2023-05-07T12:04:18;8.23;;;5.17;;
19705;SDS011;10003;52.506;4.700;2023-05-07T12:06:48;2.40;;;2.20;;
19705;SDS011;10003;52.506;4.700;2023-05-07T12:09:17;3.47;;;3.17;;
19705;SDS011;10003;52.506;4.700;2023-05-07T12:11:47;6.50;;;4.63;;
19705;SDS011;10003;52.506;4.700;2023-05-07T12:14:15;4.40;;;3.90;;
19705;SDS011;10003;52.506;4.700;2023-05-07T12:16:44;3.00;;;2.80;;
19705;SDS011;10003;52.506;4.700;2023-05-07T12:19:13;6.47;;;4.53;;
19705;SDS011;10003;52.506;4.700;2023-05-07T12:21:41;6.30;;;5.47;;
19705;SDS011;10003;52.506;4.700;2023-05-07T12:24:10;5.20;;;4.80;;
19705;SDS011;10003;52.506;4.700;2023-05-07T12:26:41;5.27;;;4.33;;
19705;SDS011;10003;52.506;4.700;2023-05-07T12:29:11;13.73;;;9.70;;
19705;SDS011;10003;52.506;4.700;2023-05-07T12:31:40;6.50;;;5.87;;
19705;SDS011;10003;52.506;4.700;2023-05-07T12:34:10;7.47;;;5.43;;
19705;SDS011;10003;52.506;4.700;2023-05-07T12:36:39;7.50;;;4.77;;
19705;SDS011;10003;52.506;4.700;2023-05-07T12:39:08;6.63;;;6.13;;
19705;SDS011;10003;52.506;4.700;2023-05-07T12:41:51;7.83;;;6.60;;
19705;SDS011;10003;52.506;4.700;2023-05-07T12:44:23;8.73;;;7.90;;
19705;SDS011;10003;52.506;4.700;2023-05-07T12:46:51;2.70;;;2.60;;
19705;SDS011;10003;52.506;4.700;2023-05-07T12:49:20;0.70;;;0.70;;
19705;SDS011;10003;52.506;4.700;2023-05-07T12:51:50;0.37;;;0.37;;
19705;SDS011;10003;52.506;4.700;2023-05-07T12:54:28;0.30;;;0.30;;
19705;SDS011;10003;52.506;4.700;2023-05-07T12:57:00;0.30;;;0.30;;
19705;SDS011;10003;52.506;4.700;2023-05-07T12:59:34;0.30;;;0.30;;
19705;SDS011;10003;52.506;4.700;2023-05-07T13:02:04;0.30;;;0.30;;
19705;SDS011;10003;52.506;4.700;2023-05-07T13:04:33;0.30;;;0.30;;
19705;SDS011;10003;52.506;4.700;2023-05-07T13:07:02;0.40;;;0.40;;
19705;SDS011;10003;52.506;4.700;2023-05-07T13:09:30;0.30;;;0.30;;
19705;SDS011;10003;52.506;4.700;2023-05-07T13:11:59;0.30;;;0.30;;
19705;SDS011;10003;52.506;4.700;2023-05-07T13:14:27;0.40;;;0.40;;
19705;SDS011;10003;52.506;4.700;2023-05-07T13:16:57;0.37;;;0.37;;
19705;SDS011;10003;52.506;4.700;2023-05-07T13:19:26;0.37;;;0.37;;
19705;SDS011;10003;52.506;4.700;2023-05-07T13:21:56;0.30;;;0.30;;
19705;SDS011;10003;52.506;4.700;2023-05-07T13:24:25;0.40;;;0.40;;
19705;SDS011;10003;52.506;4.700;2023-05-07T13:26:53;0.30;;;0.30;;
19705;SDS011;10003;52.506;4.700;2023-05-07T13:29:22;0.40;;;0.40;;
19705;SDS011;10003;52.506;4.700;2023-05-07T13:31:55;0.40;;;0.40;;
19705;SDS011;10003;52.506;4.700;2023-05-07T13:34:24;0.40;;;0.40;;
19705;SDS011;10003;52.506;4.700;2023-05-07T13:36:53;0.30;;;0.30;;
19705;SDS011;10003;52.506;4.700;2023-05-07T13:39:21;0.40;;;0.40;;
19705;SDS011;10003;52.506;4.700;2023-05-07T13:41:50;0.40;;;0.40;;
19705;SDS011;10003;52.506;4.700;2023-05-07T13:44:18;0.40;;;0.40;;
19705;SDS011;10003;52.506;4.700;2023-05-07T13:46:47;0.30;;;0.30;;
19705;SDS011;10003;52.506;4.700;2023-05-07T13:49:15;0.30;;;0.30;;
19705;SDS011;10003;52.506;4.700;2023-05-07T13:51:45;0.30;;;0.30;;
19705;SDS011;10003;52.506;4.700;2023-05-07T13:54:13;0.40;;;0.40;;
19705;SDS011;10003;52.506;4.700;2023-05-07T13:56:42;0.30;;;0.30;;
19705;SDS011;10003;52.506;4.700;2023-05-07T13:59:10;0.40;;;0.40;;
19705;SDS011;10003;52.506;4.700;2023-05-07T14:01:40;0.30;;;0.30;;
19705;SDS011;10003;52.506;4.700;2023-05-07T14:04:09;0.40;;;0.40;;
19705;SDS011;10003;52.506;4.700;2023-05-07T14:06:37;0.30;;;0.30;;
19705;SDS011;10003;52.506;4.700;2023-05-07T14:09:07;0.30;;;0.30;;
19705;SDS011;10003;52.506;4.700;2023-05-07T14:11:38;0.30;;;0.30;;
19705;SDS011;10003;52.506;4.700;2023-05-07T14:14:07;0.30;;;0.30;;
19705;SDS011;10003;52.506;4.700;2023-05-07T14:16:36;0.40;;;0.40;;
19705;SDS011;10003;52.506;4.700;2023-05-07T14:19:05;0.30;;;0.30;;
19705;SDS011;10003;52.506;4.700;2023-05-07T14:21:34;1.23;;;1.23;;
19705;SDS011;10003;52.506;4.700;2023-05-07T14:24:02;0.40;;;0.40;;
19705;SDS011;10003;52.506;4.700;2023-05-07T14:26:32;0.40;;;0.40;;
19705;SDS011;10003;52.506;4.700;2023-05-07T14:29:00;0.40;;;0.40;;
19705;SDS011;10003;52.506;4.700;2023-05-07T14:31:29;0.30;;;0.30;;
19705;SDS011;10003;52.506;4.700;2023-05-07T14:33:57;0.30;;;0.30;;
19705;SDS011;10003;52.506;4.700;2023-05-07T14:36:26;0.30;;;0.30;;
19705;SDS011;10003;52.506;4.700;2023-05-07T14:38:56;0.30;;;0.30;;
19705;SDS011;10003;52.506;4.700;2023-05-07T14:41:25;0.30;;;0.30;;
19705;SDS011;10003;52.506;4.700;2023-05-07T14:43:55;0.30;;;0.30;;
19705;SDS011;10003;52.506;4.700;2023-05-07T14:46:28;0.30;;;0.30;;
19705;SDS011;10003;52.506;4.700;2023-05-07T14:48:56;0.30;;;0.30;;
19705;SDS011;10003;52.506;4.700;2023-05-07T14:51:25;0.40;;;0.40;;
19705;SDS011;10003;52.506;4.700;2023-05-07T14:53:54;0.30;;;0.30;;
19705;SDS011;10003;52.506;4.700;2023-05-07T14:56:23;0.30;;;0.30;;
19705;SDS011;10003;52.506;4.700;2023-05-07T14:58:51;0.30;;;0.30;;
19705;SDS011;10003;52.506;4.700;2023-05-07T15:01:21;0.30;;;0.30;;
19705;SDS011;10003;52.506;4.700;2023-05-07T15:03:50;0.30;;;0.30;;
19705;SDS011;10003;52.506;4.700;2023-05-07T15:06:18;0.30;;;0.30;;
19705;SDS011;10003;52.506;4.700;2023-05-07T15:08:47;1.33;;;1.33;;
19705;SDS011;10003;52.506;4.700;2023-05-07T15:11:16;0.30;;;0.30;;